Cuyahoga County Airport
KCGF : now visible

Airfield :











YOU CAN JOIN US ON...

 
LOGIN :

Register | Disclaimer

   EN    FR    IT 

 









Legend :    VFR   Marginal VFR   IFR   Intensive IFR   Very Intensive IFR
Visi :
Ceiling :
>= 8 km
>= 3000ft
5 to 8 km
1000 to 3000 ft
1500m to 5 km
500 to 1000 ft
800 to 1500m
200 to 500 ft
< 800m
< 200 ft
Symbols :   Thunderstorms  Fog  Heavy snow  Heavy precipitations  Wind > 20 kt






- Airport Elevation : 879 ft


KCGF - Cuyahoga County

CURRENT METAR :
  • 080935Z AUTO 27008KT 10SM OVC015 13/11 A2961 RMK AO2 T01270114

EXPIRED METARs :
  • 080915Z AUTO 10SM OVC015 12/11 A2960 RMK AO2 T01180112
  • 080855Z AUTO 26003KT 10SM OVC017 12/11 A2959 RMK AO2 T01180111 60003
  • 080835Z AUTO 25005KT 10SM OVC019 12/11 A2958 RMK AO2 T01220114
  • 080815Z AUTO 10SM SCT021 11/10 A2958 RMK AO2 LTG DSNT S FZRANO T01130104
  • 080755Z AUTO 21006KT 10SM CLR 13/11 A2957 RMK AO2 FZRANO T01280114
  • 080735Z AUTO 21006KT 10SM CLR 13/12 A2958 RMK AO2 T01300116
  • 080715Z AUTO 19004KT 10SM SCT060 SCT070 BKN080 13/12 A2959 RMK AO2 LTG DSNT S T01300116

Expired Forecast.



MET'MAP, your aeronautical weather chart ! - Copyright ORBIFLY December 2007 - Disclaimer

ORBIFLY MET'MAP TEAM :

Programming & Development : Alexandra Zaïnal
Concept & original design : Baudouin d'Aumeries
Assistance for programming : Marc-Olivier Méhu
Technical & hardware support : Manuel Goepfert

Contact : metmap@orbifly.com




SOURCES & CREDITS :

   NOAA       Earth
Advisory